Time;durP1;ratioP1;P1;durP2;ratioP2;P2;SDS_P1;SDS_P2;PMS_P1;PMS_P2;Temp;Humidity;BMP_temperature;BMP_pressure;BME280_temperature;BME280_humidity;BME280_pressure;Samples;Min_cycle;Max_cycle;Signal;HPM_P1;HPM_P2
2022/10/01 00:00:30;;;;;;;6.13;5.13;;;;;;;9.98;100.00;100042.75;1931995;28;20133;-83
2022/10/01 00:01:32;;;;;;;6.38;5.03;;;;;;;10.04;100.00;100024.19;1928488;29;20047;-82
2022/10/01 00:02:30;;;;;;;7.40;5.93;;;;;;;10.05;100.00;100040.66;1931657;29;20067;-81
2022/10/01 00:03:30;;;;;;;6.00;5.47;;;;;;;10.03;100.00;100045.94;1939418;28;20046;-82
2022/10/01 00:04:28;;;;;;;6.47;5.82;;;;;;;10.01;100.00;100026.09;1946455;28;20036;-85
2022/10/01 00:05:26;;;;;;;6.35;5.50;;;;;;;9.99;100.00;100013.13;1939489;28;20418;-85
2022/10/01 00:06:23;;;;;;;7.05;6.25;;;;;;;10.00;100.00;100025.28;1939029;28;20041;-82
2022/10/01 00:07:21;;;;;;;6.90;5.85;;;;;;;10.00;100.00;100020.06;1933748;28;20036;-81
2022/10/01 00:08:19;;;;;;;6.18;5.65;;;;;;;10.01;100.00;100019.13;1945818;29;20030;-80
2022/10/01 00:09:17;;;;;;;7.95;6.45;;;;;;;10.00;100.00;100014.84;1949116;28;20052;-85
2022/10/01 00:10:18;;;;;;;6.85;6.13;;;;;;;10.02;100.00;100014.72;1947430;28;20066;-83
2022/10/01 00:11:22;;;;;;;;;;;;;;;9.99;100.00;100038.38;1946896;28;20031;-82
2022/10/01 00:12:20;;;;;;;5.25;4.03;;;;;;;10.12;100.00;100028.13;1946682;29;19929;-83
2022/10/01 00:13:19;;;;;;;8.65;5.43;;;;;;;10.05;100.00;100020.63;1951000;28;20031;-82
2022/10/01 00:14:17;;;;;;;6.15;5.35;;;;;;;10.04;100.00;100015.50;1947496;28;20039;-83
2022/10/01 00:15:15;;;;;;;8.02;6.13;;;;;;;10.01;100.00;100011.31;1954875;28;20049;-84
2022/10/01 00:16:26;;;;;;;10.25;6.43;;;;;;;9.96;100.00;100018.50;1971896;28;20457;-84
2022/10/01 00:17:23;;;;;;;6.80;6.10;;;;;;;9.92;100.00;100017.00;1984281;28;20583;-83
2022/10/01 00:18:22;;;;;;;7.13;5.88;;;;;;;9.92;100.00;100001.34;1977300;28;20030;-86
2022/10/01 00:19:21;;;;;;;7.47;6.75;;;;;;;9.89;100.00;99999.75;1969295;28;20590;-85
2022/10/01 00:20:21;;;;;;;7.07;6.40;;;;;;;9.89;100.00;99991.13;1969494;28;20076;-82
2022/10/01 00:21:22;;;;;;;;;;;;;;;9.88;100.00;99997.22;1977162;28;20044;-85
2022/10/01 00:22:23;;;;;;;6.60;5.88;;;;;;;9.86;100.00;99989.47;1987091;28;19917;-84
2022/10/01 00:23:21;;;;;;;7.10;5.72;;;;;;;9.86;100.00;99986.06;1992805;28;20034;-84
2022/10/01 00:24:20;;;;;;;6.95;6.03;;;;;;;9.88;100.00;99990.25;1971327;28;20120;-83
2022/10/01 00:25:18;;;;;;;4.72;4.05;;;;;;;9.97;100.00;99978.50;1984417;28;20044;-85
2022/10/01 00:26:19;;;;;;;7.38;6.25;;;;;;;9.94;100.00;99999.53;1992226;28;20399;-81
2022/10/01 00:27:21;;;;;;;6.47;5.80;;;;;;;9.94;100.00;99996.06;1989588;28;20390;-84
2022/10/01 00:28:18;;;;;;;6.22;5.68;;;;;;;9.98;100.00;99982.78;1984954;28;20040;-84
2022/10/01 00:29:16;;;;;;;7.47;5.10;;;;;;;10.04;100.00;99999.88;1985222;28;20482;-82
2022/10/01 00:30:13;;;;;;;8.70;5.88;;;;;;;10.02;100.00;99996.47;1977175;28;20041;-84
2022/10/01 00:31:13;;;;;;;6.32;5.72;;;;;;;9.99;100.00;99992.28;1973751;28;20211;-87
2022/10/01 00:32:14;;;;;;;7.40;6.47;;;;;;;9.98;100.00;99993.22;1984398;28;20449;-88
2022/10/01 00:33:17;;;;;;;8.38;6.10;;;;;;;9.98;100.00;99998.44;1984305;28;20429;-83
2022/10/01 00:34:14;;;;;;;9.02;6.65;;;;;;;9.95;100.00;99975.13;1962677;28;20042;-83
2022/10/01 00:35:13;;;;;;;6.55;5.95;;;;;;;9.96;100.00;99992.44;1962859;28;20045;-84
2022/10/01 00:36:12;;;;;;;4.97;4.50;;;;;;;10.06;100.00;99982.38;1969302;28;20076;-80
2022/10/01 00:37:09;;;;;;;9.88;6.07;;;;;;;10.07;100.00;99988.44;1968946;28;20038;-85
2022/10/01 00:38:09;;;;;;;5.47;4.72;;;;;;;10.03;100.00;99988.59;1966907;28;20121;-85
2022/10/01 00:39:10;;;;;;;9.30;5.38;;;;;;;10.05;100.00;99986.75;1954553;28;20050;-82
2022/10/01 00:40:08;;;;;;;7.80;6.13;;;;;;;10.04;100.00;99961.63;1953825;28;20035;-84
2022/10/01 00:41:07;;;;;;;8.35;6.30;;;;;;;10.05;100.00;99954.63;1968996;28;20255;-82
2022/10/01 00:42:37;;;;;;;6.30;5.00;;;;;;;10.05;100.00;99950.25;1968620;28;20490;-85
2022/10/01 00:43:42;;;;;;;5.35;4.63;;;;;;;10.07;100.00;99931.06;1938885;28;20311;-85
2022/10/01 00:44:39;;;;;;;4.82;4.03;;;;;;;10.11;100.00;99943.00;1961487;28;20696;-85
2022/10/01 00:45:37;;;;;;;5.28;4.78;;;;;;;10.09;100.00;99950.09;1969331;28;20026;-83
2022/10/01 00:46:44;;;;;;;7.60;5.35;;;;;;;10.07;100.00;99954.53;1959584;28;20117;-85
2022/10/01 00:48:00;;;;;;;9.18;5.95;;;;;;;10.09;100.00;99960.53;1946963;28;20472;-86
2022/10/01 00:49:06;;;;;;;6.88;4.95;;;;;;;10.06;100.00;99966.72;1955277;28;20030;-84
2022/10/01 00:50:16;;;;;;;5.00;4.28;;;;;;;10.06;100.00;99969.31;1953780;28;20041;-84
2022/10/01 00:51:14;;;;;;;6.38;5.70;;;;;;;10.03;100.00;99970.34;1954484;28;20133;-82
2022/10/01 00:52:21;;;;;;;6.95;5.82;;;;;;;10.01;100.00;99968.75;1953924;28;20033;-83
2022/10/01 00:53:23;;;;;;;8.30;6.10;;;;;;;9.97;100.00;99980.25;1945449;29;20152;-82
2022/10/01 00:54:36;;;;;;;6.03;5.45;;;;;;;10.01;100.00;99995.66;1946534;28;20066;-86
2022/10/01 00:55:45;;;;;;;5.90;5.35;;;;;;;10.02;100.00;99992.13;1954740;28;20043;-86
2022/10/01 00:56:43;;;;;;;7.78;6.20;;;;;;;10.01;100.00;99985.25;1960783;28;20124;-84
2022/10/01 00:57:48;;;;;;;7.43;6.00;;;;;;;10.00;100.00;99999.19;1961387;28;20095;-84
2022/10/01 00:58:46;;;;;;;6.65;5.82;;;;;;;10.01;100.00;100006.09;1961297;28;20025;-83
2022/10/01 00:59:49;;;;;;;6.43;5.82;;;;;;;10.02;100.00;99984.31;1953608;28;20023;-85
2022/10/01 01:00:52;;;;;;;6.57;4.10;;;;;;;10.05;100.00;99986.75;1946163;28;20031;-83
2022/10/01 01:01:50;;;;;;;6.50;5.90;;;;;;;10.07;100.00;99991.03;1953857;28;20165;-85
2022/10/01 01:02:48;;;;;;;6.40;4.57;;;;;;;10.11;100.00;99984.72;1946318;28;20027;-82
2022/10/01 01:03:46;;;;;;;6.25;5.20;;;;;;;10.09;100.00;99983.97;1950491;28;20152;-84
2022/10/01 01:04:44;;;;;;;5.65;4.75;;;;;;;10.09;100.00;99981.38;1960999;28;20079;-86
2022/10/01 01:05:46;;;;;;;6.03;5.05;;;;;;;10.09;100.00;99983.97;1953720;28;20033;-86
2022/10/01 01:07:05;;;;;;;8.43;6.03;;;;;;;10.05;100.00;99988.50;1955479;28;20026;-84
2022/10/01 01:08:14;;;;;;;6.35;5.25;;;;;;;10.03;100.00;99985.97;1941660;29;20123;-83
2022/10/01 01:09:18;;;;;;;6.75;4.35;;;;;;;9.99;100.00;99965.41;1915972;29;20047;-85
2022/10/01 01:10:28;;;;;;;5.45;4.03;;;;;;;10.01;100.00;99969.59;1926217;29;20066;-81
2022/10/01 01:12:11;;;;;;;6.13;5.30;;;;;;;9.98;100.00;99974.13;1929153;29;20390;-83
2022/10/01 01:13:52;;;;;;;4.93;4.43;;;;;;;10.01;100.00;99992.22;1938558;29;20035;-83
2022/10/01 01:15:15;;;;;;;6.72;5.07;;;;;;;9.99;100.00;99971.44;1931246;29;20039;-83
2022/10/01 01:16:53;;;;;;;6.00;5.43;;;;;;;9.98;100.00;99959.34;1931282;29;20188;-81
2022/10/01 01:18:39;;;;;;;5.38;4.85;;;;;;;9.91;100.00;99922.34;1935654;29;20087;-84
2022/10/01 01:20:19;;;;;;;4.65;4.25;;;;;;;9.87;100.00;99933.00;1938904;29;20116;-83
2022/10/01 01:21:22;;;;;;;4.60;4.15;;;;;;;9.86;100.00;99921.72;1931487;29;20040;-81
2022/10/01 01:22:26;;;;;;;6.30;5.70;;;;;;;9.80;100.00;99929.91;1938868;29;20027;-83
2022/10/01 01:24:22;;;;;;;5.68;5.07;;;;;;;9.75;100.00;99932.75;1944314;29;20066;-85
2022/10/01 01:25:46;;;;;;;6.82;4.93;;;;;;;9.71;100.00;99928.63;1935095;29;20062;-81
2022/10/01 01:27:07;;;;;;;4.22;3.83;;;;;;;9.75;100.00;99922.31;1938944;29;20094;-82
2022/10/01 01:28:30;;;;;;;5.70;4.38;;;;;;;9.76;100.00;99903.16;1928683;29;20033;-83
2022/10/01 01:29:45;;;;;;;3.53;2.95;;;;;;;9.88;100.00;99870.38;1941363;29;20044;-80
2022/10/01 01:30:54;;;;;;;6.78;3.60;;;;;;;9.90;100.00;99857.25;1944870;29;20035;-80
2022/10/01 01:32:06;;;;;;;3.47;3.28;;;;;;;9.86;100.00;99855.75;1931563;29;20043;-80
2022/10/01 01:33:16;;;;;;;5.88;4.03;;;;;;;9.82;100.00;99855.06;1931584;29;20168;-84
2022/10/01 01:34:24;;;;;;;4.88;4.47;;;;;;;9.82;100.00;99864.66;1931304;29;20032;-82
2022/10/01 01:35:39;;;;;;;4.43;4.03;;;;;;;9.80;100.00;99851.72;1932029;29;20044;-84
2022/10/01 01:36:46;;;;;;;6.55;4.63;;;;;;;9.83;100.00;99848.09;1938712;29;20039;-84
2022/10/01 01:38:19;;;;;;;5.28;4.10;;;;;;;9.82;100.00;99838.63;1938283;29;20051;-82
2022/10/01 01:39:53;;;;;;;5.63;3.70;;;;;;;9.77;100.00;99841.47;1933021;29;20495;-83
2022/10/01 01:41:11;;;;;;;3.90;3.50;;;;;;;9.75;100.00;99831.13;1939020;29;20047;-83
2022/10/01 01:42:21;;;;;;;4.85;4.40;;;;;;;9.74;100.00;99806.00;1938813;29;20485;-81
2022/10/01 01:43:42;;;;;;;4.22;3.67;;;;;;;9.70;100.00;99786.25;1908073;29;20041;-83
2022/10/01 01:44:44;;;;;;;4.28;3.88;;;;;;;9.70;100.00;99752.38;1902384;29;20061;-83
2022/10/01 01:45:55;;;;;;;5.85;4.88;;;;;;;9.70;100.00;99804.50;1903507;29;20045;-82
2022/10/01 01:47:00;;;;;;;8.85;4.95;;;;;;;9.69;100.00;99854.94;1904323;29;20053;-85
2022/10/01 01:48:08;;;;;;;6.65;5.22;;;;;;;9.66;100.00;99861.13;1910695;29;20145;-83
2022/10/01 01:49:34;;;;;;;6.97;4.88;;;;;;;9.65;100.00;99848.22;1906787;29;20066;-84
2022/10/01 01:50:43;;;;;;;6.18;4.90;;;;;;;9.68;100.00;99853.22;1904941;29;20037;-83
2022/10/01 01:52:00;;;;;;;4.47;3.80;;;;;;;9.70;100.00;99867.03;1910627;29;20044;-84
2022/10/01 01:52:58;;;;;;;4.07;3.70;;;;;;;9.74;100.00;99873.75;1903224;29;20045;-81
2022/10/01 01:53:58;;;;;;;7.20;4.45;;;;;;;9.72;100.00;99872.97;1908329;29;20208;-82
2022/10/01 01:55:06;;;;;;;7.97;5.10;;;;;;;9.72;100.00;99859.94;1916215;29;20033;-82
2022/10/01 01:56:07;;;;;;;4.65;3.95;;;;;;;9.71;100.00;99842.63;1918110;29;20055;-81
2022/10/01 01:57:06;;;;;;;5.47;4.25;;;;;;;9.73;100.00;99846.03;1910764;29;20400;-87
2022/10/01 01:58:07;;;;;;;6.68;4.30;;;;;;;9.71;100.00;99840.03;1910521;29;20068;-84
2022/10/01 01:59:05;;;;;;;;;;;;;;;9.73;100.00;99855.59;1905196;29;20049;-81
2022/10/01 02:00:05;;;;;;;3.92;2.95;;;;;;;9.73;100.00;99859.03;1910687;29;19984;-81
2022/10/01 02:01:03;;;;;;;3.55;2.38;;;;;;;9.76;100.00;99855.44;1910827;29;20051;-83
2022/10/01 02:02:07;;;;;;;5.38;4.88;;;;;;;9.72;100.00;99861.72;1903369;29;20081;-85
2022/10/01 02:03:13;;;;;;;4.43;4.03;;;;;;;9.72;100.00;99859.94;1903689;29;20038;-83
2022/10/01 02:04:35;;;;;;;6.50;4.40;;;;;;;9.69;100.00;99849.72;1910187;29;20418;-82
2022/10/01 02:06:06;;;;;;;3.92;3.58;;;;;;;9.71;100.00;99870.47;1912894;29;20143;-83
2022/10/01 02:07:53;;;;;;;4.18;3.78;;;;;;;9.68;100.00;99860.22;1899844;29;20045;-82
2022/10/01 02:09:36;;;;;;;6.38;4.20;;;;;;;9.65;100.00;99874.25;1894245;29;20056;-82
2022/10/01 02:10:41;;;;;;;3.55;3.25;;;;;;;9.62;100.00;99869.19;1893569;29;20061;-82
2022/10/01 02:12:01;;;;;;;5.55;4.10;;;;;;;9.63;100.00;99855.25;1896225;29;20457;-83
2022/10/01 02:13:13;;;;;;;2.38;2.22;;;;;;;9.70;100.00;99855.75;1883551;29;20109;-81
2022/10/01 02:14:27;;;;;;;3.03;2.63;;;;;;;9.71;100.00;99855.66;1897075;29;20050;-83
2022/10/01 02:16:00;;;;;;;3.70;3.35;;;;;;;9.69;100.00;99862.75;1941106;29;20385;-82
2022/10/01 02:17:12;;;;;;;5.65;3.70;;;;;;;9.65;100.00;99859.44;1943349;29;20046;-83
2022/10/01 02:18:52;;;;;;;3.33;3.03;;;;;;;9.71;100.00;99847.03;1951994;28;20058;-81
2022/10/01 02:20:07;;;;;;;4.82;3.95;;;;;;;9.69;100.00;99860.13;1961425;28;20025;-81
2022/10/01 02:21:40;;;;;;;5.10;3.72;;;;;;;9.66;100.00;99860.28;1955557;28;20031;-82
2022/10/01 02:22:48;;;;;;;3.25;2.83;;;;;;;9.67;100.00;99851.56;1962029;28;20484;-84
2022/10/01 02:24:16;;;;;;;2.30;2.10;;;;;;;9.68;100.00;99858.44;1960664;28;20096;-84
2022/10/01 02:25:25;;;;;;;3.75;3.45;;;;;;;9.69;100.00;99841.06;1952787;29;20097;-83
2022/10/01 02:26:36;;;;;;;3.13;2.92;;;;;;;9.68;100.00;99865.44;1954401;28;20031;-85
2022/10/01 02:27:52;;;;;;;2.47;2.30;;;;;;;9.70;100.00;99854.00;1954929;28;20055;-83
2022/10/01 02:29:01;;;;;;;4.03;2.85;;;;;;;9.68;100.00;99844.59;1959041;28;20097;-83
2022/10/01 02:30:18;;;;;;;3.28;3.05;;;;;;;9.65;100.00;99843.81;1950344;29;20400;-85
2022/10/01 02:31:21;;;;;;;4.43;3.10;;;;;;;9.64;100.00;99846.50;1935107;29;20047;-80
2022/10/01 02:32:22;;;;;;;3.42;2.65;;;;;;;9.67;100.00;99851.56;1940038;29;20055;-83
2022/10/01 02:33:28;;;;;;;4.00;3.15;;;;;;;9.68;100.00;99848.00;1940406;29;20023;-82
2022/10/01 02:34:30;;;;;;;2.70;2.50;;;;;;;9.75;100.00;99838.94;1947613;29;20082;-80
2022/10/01 02:35:33;;;;;;;1.95;1.85;;;;;;;9.80;100.00;99843.91;1939911;29;20538;-82
2022/10/01 02:36:34;;;;;;;3.50;3.20;;;;;;;9.77;100.00;99833.66;1940506;29;20035;-81
2022/10/01 02:37:36;;;;;;;2.58;2.38;;;;;;;9.79;100.00;99830.03;1941327;29;20506;-81
2022/10/01 02:38:39;;;;;;;3.60;2.88;;;;;;;9.78;100.00;99825.75;1946712;28;20065;-81
2022/10/01 02:39:40;;;;;;;2.85;2.33;;;;;;;9.79;100.00;99830.03;1955035;28;20022;-82
2022/10/01 02:40:43;;;;;;;2.05;1.95;;;;;;;9.80;100.00;99825.66;1946315;29;20038;-81
2022/10/01 02:41:46;;;;;;;3.08;2.35;;;;;;;9.77;100.00;99811.03;1955122;28;20160;-83
2022/10/01 02:42:50;;;;;;;2.92;2.63;;;;;;;9.74;100.00;99837.28;1954695;28;20055;-81
2022/10/01 02:44:04;;;;;;;2.78;2.58;;;;;;;9.75;100.00;99818.09;1947812;29;20105;-83
2022/10/01 02:45:04;;;;;;;4.00;3.00;;;;;;;9.75;100.00;99838.13;1963998;28;20099;-81
2022/10/01 02:46:20;;;;;;;3.10;2.90;;;;;;;9.72;100.00;99826.06;1962728;28;20022;-81
2022/10/01 02:47:25;;;;;;;2.58;2.38;;;;;;;9.78;100.00;99812.72;1953685;28;20461;-82
2022/10/01 02:48:26;;;;;;;3.42;3.13;;;;;;;9.78;100.00;99817.94;1955321;28;20031;-79
2022/10/01 02:49:27;;;;;;;1.23;1.10;;;;;;;9.81;100.00;99811.72;1956017;28;20076;-81
2022/10/01 02:50:33;;;;;;;2.22;2.03;;;;;;;9.80;100.00;99810.03;1955823;28;20028;-81
2022/10/01 02:51:55;;;;;;;3.40;3.10;;;;;;;9.80;100.00;99817.84;1951140;28;20185;-81
2022/10/01 02:53:04;;;;;;;2.95;2.55;;;;;;;9.79;100.00;99817.00;1955943;28;20358;-81
2022/10/01 02:54:28;;;;;;;2.53;2.33;;;;;;;9.79;100.00;99809.19;1963288;28;20046;-82
2022/10/01 02:55:34;;;;;;;2.83;2.63;;;;;;;9.79;100.00;99800.53;1962547;28;20289;-81
2022/10/01 02:57:49;;;;;;;3.42;3.00;;;;;;;9.83;100.00;99806.41;1970329;28;20030;-81
2022/10/01 02:58:47;;;;;;;3.47;3.17;;;;;;;9.86;100.00;99808.84;1958228;28;20023;-82
2022/10/01 02:59:45;;;;;;;3.08;2.25;;;;;;;9.88;100.00;99804.38;1954964;28;20027;-82
2022/10/01 03:00:42;;;;;;;4.40;2.25;;;;;;;9.90;100.00;99811.22;1956810;28;20037;-83
2022/10/01 03:01:39;;;;;;;3.10;2.80;;;;;;;9.89;100.00;99811.28;1969410;28;20433;-83
2022/10/01 03:02:39;;;;;;;2.40;2.22;;;;;;;9.91;100.00;99801.59;1967997;28;20063;-82
2022/10/01 03:03:40;;;;;;;2.67;2.47;;;;;;;9.89;100.00;99809.50;1968424;28;20054;-80
2022/10/01 03:04:38;;;;;;;3.00;2.72;;;;;;;9.90;100.00;99813.81;1970725;28;20042;-83
2022/10/01 03:05:36;;;;;;;3.28;2.92;;;;;;;9.88;100.00;99812.19;1978203;28;20340;-78
2022/10/01 03:06:34;;;;;;;3.05;2.83;;;;;;;9.88;100.00;99809.59;1973444;28;20025;-81
2022/10/01 03:07:34;;;;;;;3.10;2.80;;;;;;;9.89;100.00;99803.47;1970709;28;20040;-82
2022/10/01 03:08:31;;;;;;;4.35;3.15;;;;;;;9.92;100.00;99816.31;1970110;28;20022;-81
2022/10/01 03:09:33;;;;;;;3.38;2.65;;;;;;;9.97;100.00;99826.47;1972007;28;20482;-83
2022/10/01 03:10:31;;;;;;;2.95;2.70;;;;;;;9.96;100.00;99822.22;1970424;28;20056;-82
2022/10/01 03:11:28;;;;;;;5.28;3.05;;;;;;;9.96;100.00;99825.63;1970587;28;20499;-81
2022/10/01 03:12:26;;;;;;;3.40;2.80;;;;;;;9.97;100.00;99822.13;1977500;28;20160;-81
2022/10/01 03:13:24;;;;;;;4.35;2.47;;;;;;;10.00;100.00;99810.69;1978422;28;20052;-81
2022/10/01 03:14:22;;;;;;;2.67;2.47;;;;;;;10.00;100.00;99811.53;1977402;28;20025;-82
2022/10/01 03:15:20;;;;;;;3.40;2.92;;;;;;;9.99;100.00;99814.22;1978388;28;20093;-80
2022/10/01 03:16:17;;;;;;;2.78;2.58;;;;;;;10.00;100.00;99806.31;1985528;28;20055;-83
2022/10/01 03:17:16;;;;;;;5.30;2.72;;;;;;;10.01;100.00;99808.00;1986202;28;20355;-79
2022/10/01 03:18:13;;;;;;;3.67;2.42;;;;;;;10.02;100.00;99812.25;1978287;28;20021;-81
2022/10/01 03:19:11;;;;;;;2.78;2.58;;;;;;;10.01;100.00;99810.59;1970466;28;20057;-82
2022/10/01 03:20:09;;;;;;;3.15;2.85;;;;;;;10.02;100.00;99816.63;1972903;28;20476;-81
2022/10/01 03:21:06;;;;;;;2.70;2.50;;;;;;;10.01;100.00;99813.19;1977481;28;20034;-82
2022/10/01 03:22:04;;;;;;;2.60;2.40;;;;;;;10.08;100.00;99808.47;1978428;28;20030;-80
2022/10/01 03:23:01;;;;;;;2.67;2.47;;;;;;;10.04;100.00;99797.41;1985681;28;20175;-79
2022/10/01 03:23:58;;;;;;;2.85;2.65;;;;;;;10.05;100.00;99806.03;1986681;28;20110;-81
2022/10/01 03:24:56;;;;;;;2.97;2.67;;;;;;;10.04;100.00;99807.81;1978135;28;20025;-83
2022/10/01 03:25:53;;;;;;;2.95;2.30;;;;;;;10.05;100.00;99793.00;1976504;28;20044;-79
2022/10/01 03:26:50;;;;;;;2.78;2.58;;;;;;;10.07;100.00;99808.56;1977307;28;20026;-81
2022/10/01 03:27:48;;;;;;;1.95;1.85;;;;;;;10.11;100.00;99786.59;1978356;28;20394;-83
2022/10/01 03:28:45;;;;;;;2.35;2.15;;;;;;;10.13;100.00;99789.97;1977415;28;20021;-80
2022/10/01 03:29:43;;;;;;;4.15;2.28;;;;;;;10.13;100.00;99801.22;1976451;28;20021;-82
2022/10/01 03:30:41;;;;;;;2.47;2.20;;;;;;;10.18;100.00;99793.16;1983530;28;20029;-79
2022/10/01 03:31:38;;;;;;;2.40;2.20;;;;;;;10.17;100.00;99794.06;1986100;28;20046;-81
2022/10/01 03:32:36;;;;;;;2.05;1.95;;;;;;;10.16;100.00;99805.41;1983447;28;20037;-81
2022/10/01 03:33:34;;;;;;;3.63;1.92;;;;;;;10.15;100.00;99804.59;1986410;28;20028;-83
2022/10/01 03:34:32;;;;;;;2.03;1.92;;;;;;;10.15;100.00;99804.59;1978180;28;20380;-82
2022/10/01 03:35:30;;;;;;;3.30;2.13;;;;;;;10.19;100.00;99807.84;1978290;28;20053;-81
2022/10/01 03:36:29;;;;;;;3.28;2.10;;;;;;;10.17;100.00;99799.28;1983731;28;20402;-80
2022/10/01 03:37:26;;;;;;;2.40;2.20;;;;;;;10.18;100.00;99806.19;1978107;28;20055;-81
2022/10/01 03:38:23;;;;;;;2.17;1.98;;;;;;;10.16;100.00;99801.06;1970404;28;20099;-83
2022/10/01 03:39:22;;;;;;;2.00;1.90;;;;;;;10.20;100.00;99806.94;1970381;28;20573;-84
2022/10/01 03:40:19;;;;;;;3.35;1.85;;;;;;;10.23;100.00;99806.75;1975832;28;20065;-80
2022/10/01 03:41:18;;;;;;;2.10;2.00;;;;;;;10.22;100.00;99797.25;1977396;28;20103;-81
2022/10/01 03:42:15;;;;;;;1.70;1.60;;;;;;;10.25;100.00;99801.44;1966232;28;20467;-81
2022/10/01 03:43:13;;;;;;;1.67;1.58;;;;;;;10.24;100.00;99807.59;1969632;28;20072;-82
2022/10/01 03:44:10;;;;;;;1.80;1.70;;;;;;;10.27;100.00;99797.81;1972548;28;20050;-81
2022/10/01 03:45:08;;;;;;;1.67;1.58;;;;;;;10.27;100.00;99792.59;1977322;28;20029;-82
2022/10/01 03:46:06;;;;;;;1.58;1.55;;;;;;;10.28;100.00;99793.44;1978102;28;20075;-82
2022/10/01 03:47:03;;;;;;;2.55;1.70;;;;;;;10.33;100.00;99785.38;1977410;28;20383;-79
2022/10/01 03:48:00;;;;;;;1.65;1.55;;;;;;;10.31;100.00;99796.72;1970269;28;20045;-79
2022/10/01 03:48:59;;;;;;;1.92;1.80;;;;;;;10.30;100.00;99802.84;1970481;28;20400;-85
2022/10/01 03:49:57;;;;;;;1.63;1.50;;;;;;;10.31;100.00;99801.91;1977387;28;20060;-81
2022/10/01 03:50:57;;;;;;;1.48;1.38;;;;;;;10.35;100.00;99804.34;1977424;28;20456;-82
2022/10/01 03:51:55;;;;;;;1.50;1.50;;;;;;;10.35;100.00;99804.34;1978110;28;20474;-83
2022/10/01 03:52:53;;;;;;;1.80;1.70;;;;;;;10.33;100.00;99803.63;1985448;28;20029;-82
2022/10/01 03:53:50;;;;;;;1.52;1.38;;;;;;;10.33;100.00;99806.22;1978012;28;20466;-80
2022/10/01 03:54:47;;;;;;;1.60;1.50;;;;;;;10.36;100.00;99801.66;1967182;28;20154;-81
2022/10/01 03:55:45;;;;;;;1.50;1.50;;;;;;;10.35;100.00;99812.19;1977100;28;20029;-80
2022/10/01 03:56:42;;;;;;;2.22;1.60;;;;;;;10.37;100.00;99812.94;1973550;28;20307;-82
2022/10/01 03:57:40;;;;;;;1.50;1.40;;;;;;;10.37;100.00;99808.56;1977981;28;20624;-79
2022/10/01 03:58:37;;;;;;;1.83;1.67;;;;;;;10.37;100.00;99818.16;1978042;28;20049;-79
2022/10/01 03:59:35;;;;;;;1.50;1.40;;;;;;;10.38;100.00;99804.19;1970351;28;20040;-80
2022/10/01 04:00:32;;;;;;;4.55;1.67;;;;;;;10.41;100.00;99811.84;1966600;28;20057;-78
2022/10/01 04:01:29;;;;;;;1.45;1.35;;;;;;;10.39;100.00;99814.53;1977234;28;20101;-80
2022/10/01 04:02:27;;;;;;;1.65;1.45;;;;;;;10.39;100.00;99811.91;1985388;28;20032;-80
2022/10/01 04:03:24;;;;;;;1.15;1.15;;;;;;;10.41;100.00;99811.84;1977924;28;20545;-81
2022/10/01 04:04:21;;;;;;;2.35;1.35;;;;;;;10.42;100.00;99805.69;1967200;28;20081;-79
2022/10/01 04:05:19;;;;;;;2.28;1.50;;;;;;;10.43;100.00;99812.56;1969411;28;20048;-80
2022/10/01 04:06:18;;;;;;;1.60;1.50;;;;;;;10.42;100.00;99811.75;1973594;28;20029;-81
2022/10/01 04:07:15;;;;;;;1.40;1.30;;;;;;;10.45;100.00;99805.53;1945743;28;20054;-80
2022/10/01 04:08:13;;;;;;;1.48;1.38;;;;;;;10.45;100.00;99821.19;1946357;29;20394;-80
2022/10/01 04:09:10;;;;;;;1.20;1.20;;;;;;;10.46;100.00;99812.44;1953496;28;20037;-80
2022/10/01 04:10:08;;;;;;;2.47;1.45;;;;;;;10.49;100.00;99819.22;1946749;29;20042;-79
2022/10/01 04:11:07;;;;;;;1.23;1.13;;;;;;;10.57;100.00;99817.00;1946932;29;20037;-79
2022/10/01 04:12:04;;;;;;;1.60;1.50;;;;;;;10.55;100.00;99822.31;1953824;28;20042;-80
2022/10/01 04:13:03;;;;;;;1.02;1.00;;;;;;;10.60;100.00;99813.41;1952809;28;20063;-81
2022/10/01 04:14:01;;;;;;;1.45;1.30;;;;;;;10.59;100.00;99822.13;1946772;29;20019;-80
2022/10/01 04:14:58;;;;;;;1.20;1.20;;;;;;;10.60;100.00;99818.63;1939197;29;20039;-80
2022/10/01 04:15:55;;;;;;;1.00;1.00;;;;;;;10.61;100.00;99820.28;1945927;29;20057;-79
2022/10/01 04:16:53;;;;;;;1.10;1.10;;;;;;;10.61;100.00;99825.50;1953496;28;20334;-79
2022/10/01 04:17:50;;;;;;;1.05;1.05;;;;;;;10.60;100.00;99824.66;1954343;28;20196;-81
2022/10/01 04:18:47;;;;;;;1.35;1.00;;;;;;;10.61;100.00;99828.13;1946739;29;20027;-82
2022/10/01 04:19:45;;;;;;;1.00;1.00;;;;;;;10.63;100.00;99823.63;1939150;29;20082;-81
2022/10/01 04:20:42;;;;;;;1.33;1.33;;;;;;;10.62;100.00;99824.56;1945986;29;20023;-81
2022/10/01 04:21:40;;;;;;;2.15;1.17;;;;;;;10.62;100.00;99821.97;1943177;29;20031;-82
2022/10/01 04:22:42;;;;;;;1.17;1.08;;;;;;;10.63;100.00;99823.63;1939921;29;20023;-81
2022/10/01 04:23:39;;;;;;;1.38;1.10;;;;;;;10.63;100.00;99823.63;1954011;28;20114;-78
2022/10/01 04:24:36;;;;;;;1.15;0.98;;;;;;;10.64;100.00;99825.34;1954445;28;20026;-79
2022/10/01 04:25:34;;;;;;;1.30;1.20;;;;;;;10.63;100.00;99829.72;1954204;28;20035;-80
2022/10/01 04:26:31;;;;;;;1.02;1.00;;;;;;;10.64;100.00;99827.94;1947014;29;20117;-80
2022/10/01 04:27:28;;;;;;;1.42;1.30;;;;;;;10.65;100.00;99834.84;1947207;29;20057;-82
2022/10/01 04:28:26;;;;;;;1.38;1.27;;;;;;;10.64;100.00;99835.78;1953844;28;20247;-80
2022/10/01 04:29:23;;;;;;;1.13;1.13;;;;;;;10.65;100.00;99832.22;1948022;28;20366;-80
2022/10/01 04:30:22;;;;;;;1.20;1.20;;;;;;;10.65;100.00;99834.84;1947207;29;20027;-80
2022/10/01 04:31:25;;;;;;;2.03;1.27;;;;;;;10.67;100.00;99830.34;1947130;29;20039;-81
2022/10/01 04:32:23;;;;;;;2.13;1.13;;;;;;;10.67;100.00;99830.34;1946816;29;20055;-82
2022/10/01 04:33:20;;;;;;;1.85;1.42;;;;;;;10.70;100.00;99835.41;1954224;28;20026;-79
2022/10/01 04:34:17;;;;;;;3.05;1.40;;;;;;;10.68;100.00;99837.28;1947725;28;20035;-80
2022/10/01 04:35:15;;;;;;;1.55;1.45;;;;;;;10.68;100.00;99832.06;1946976;29;20366;-78
2022/10/01 04:36:13;;;;;;;1.75;1.30;;;;;;;10.69;100.00;99838.94;1946865;29;20034;-80
2022/10/01 04:37:10;;;;;;;2.03;1.30;;;;;;;10.68;100.00;99832.88;1939207;29;20070;-79
2022/10/01 04:38:15;;;;;;;1.20;1.10;;;;;;;10.71;100.00;99847.50;1946366;29;20046;-79
2022/10/01 04:39:13;;;;;;;2.55;1.30;;;;;;;10.75;100.00;99842.97;1979232;28;20044;-81
2022/10/01 04:40:10;;;;;;;1.15;1.15;;;;;;;10.77;100.00;99841.94;1977778;28;20068;-80
2022/10/01 04:41:08;;;;;;;1.30;1.20;;;;;;;10.76;100.00;99840.25;1978121;28;20077;-80
2022/10/01 04:42:05;;;;;;;1.17;1.10;;;;;;;10.76;100.00;99842.03;1976946;28;20070;-80
2022/10/01 04:43:07;;;;;;;1.55;1.10;;;;;;;10.82;100.00;99839.88;1978013;28;20092;-83
2022/10/01 04:44:04;;;;;;;1.40;1.35;;;;;;;10.84;100.00;99838.97;1974819;28;20037;-81
2022/10/01 04:45:02;;;;;;;1.38;1.27;;;;;;;10.85;100.00;99843.25;1970161;28;20050;-79
2022/10/01 04:45:59;;;;;;;1.30;1.30;;;;;;;10.85;100.00;99838.03;1977170;28;20036;-79
2022/10/01 04:46:57;;;;;;;2.92;1.38;;;;;;;10.86;100.00;99839.69;1985439;28;20028;-79
2022/10/01 04:47:55;;;;;;;2.42;1.40;;;;;;;10.86;100.00;99850.16;1977905;28;20059;-79
2022/10/01 04:48:52;;;;;;;1.23;1.20;;;;;;;10.86;100.00;99844.91;1977758;28;20123;-80
2022/10/01 04:49:50;;;;;;;1.65;1.55;;;;;;;10.89;100.00;99849.97;1977185;28;20021;-80
2022/10/01 04:50:47;;;;;;;1.40;1.30;;;;;;;10.88;100.00;99841.28;1970068;28;20036;-81
2022/10/01 04:51:44;;;;;;;1.40;1.33;;;;;;;10.88;100.00;99846.50;1971586;28;20058;-79
2022/10/01 04:52:42;;;;;;;1.67;1.50;;;;;;;10.91;100.00;99853.31;1984986;28;20025;-79
2022/10/01 04:53:40;;;;;;;1.60;1.50;;;;;;;10.90;100.00;99851.63;1977898;28;20033;-80
2022/10/01 04:54:37;;;;;;;2.35;1.70;;;;;;;10.92;100.00;99849.78;1977922;28;20040;-80
2022/10/01 04:55:35;;;;;;;1.95;1.52;;;;;;;10.91;100.00;99845.47;1985362;28;20124;-79
2022/10/01 04:56:32;;;;;;;1.75;1.65;;;;;;;10.94;100.00;99853.13;1977685;28;20029;-79
2022/10/01 04:57:30;;;;;;;2.38;1.75;;;;;;;10.94;100.00;99842.69;1977842;28;20072;-82
2022/10/01 04:58:27;;;;;;;5.68;1.60;;;;;;;10.96;100.00;99843.44;1984791;28;20021;-81
2022/10/01 04:59:25;;;;;;;1.92;1.52;;;;;;;10.97;100.00;99854.72;1977560;28;20059;-80